sensor_id;sensor_type;location;lat;lon;timestamp;P1;durP1;ratioP1;P2;durP2;ratioP2
13799;SDS011;6971;50.028;9.258;2023-08-06T00:01:20;8.50;;;6.80;;
13799;SDS011;6971;50.028;9.258;2023-08-06T00:06:22;7.10;;;6.40;;
13799;SDS011;6971;50.028;9.258;2023-08-06T00:11:24;6.43;;;5.83;;
13799;SDS011;6971;50.028;9.258;2023-08-06T00:16:24;6.90;;;6.23;;
13799;SDS011;6971;50.028;9.258;2023-08-06T00:21:25;7.27;;;6.63;;
13799;SDS011;6971;50.028;9.258;2023-08-06T00:26:25;7.83;;;6.50;;
13799;SDS011;6971;50.028;9.258;2023-08-06T00:31:26;9.47;;;6.90;;
13799;SDS011;6971;50.028;9.258;2023-08-06T00:36:26;8.40;;;7.57;;
13799;SDS011;6971;50.028;9.258;2023-08-06T00:41:27;7.73;;;7.03;;
13799;SDS011;6971;50.028;9.258;2023-08-06T00:46:28;7.40;;;6.80;;
13799;SDS011;6971;50.028;9.258;2023-08-06T00:51:28;7.60;;;6.90;;
13799;SDS011;6971;50.028;9.258;2023-08-06T00:56:29;8.37;;;7.57;;
13799;SDS011;6971;50.028;9.258;2023-08-06T01:01:32;8.57;;;6.83;;
13799;SDS011;6971;50.028;9.258;2023-08-06T01:16:46;11.27;;;7.40;;
13799;SDS011;6971;50.028;9.258;2023-08-06T01:21:48;7.77;;;7.07;;
13799;SDS011;6971;50.028;9.258;2023-08-06T01:26:51;7.90;;;7.30;;
13799;SDS011;6971;50.028;9.258;2023-08-06T01:31:54;8.63;;;7.83;;
13799;SDS011;6971;50.028;9.258;2023-08-06T01:36:58;9.00;;;8.20;;
13799;SDS011;6971;50.028;9.258;2023-08-06T01:42:00;9.50;;;8.00;;
13799;SDS011;6971;50.028;9.258;2023-08-06T01:47:01;8.83;;;8.00;;
13799;SDS011;6971;50.028;9.258;2023-08-06T01:52:02;8.50;;;7.60;;
13799;SDS011;6971;50.028;9.258;2023-08-06T01:57:02;11.83;;;8.47;;
13799;SDS011;6971;50.028;9.258;2023-08-06T02:02:03;8.17;;;7.37;;
13799;SDS011;6971;50.028;9.258;2023-08-06T02:07:05;13.67;;;8.00;;
13799;SDS011;6971;50.028;9.258;2023-08-06T02:12:08;13.73;;;7.23;;
13799;SDS011;6971;50.028;9.258;2023-08-06T02:17:08;8.63;;;7.70;;
13799;SDS011;6971;50.028;9.258;2023-08-06T02:22:09;9.30;;;8.10;;
13799;SDS011;6971;50.028;9.258;2023-08-06T02:27:10;8.93;;;8.13;;
13799;SDS011;6971;50.028;9.258;2023-08-06T02:32:11;9.43;;;8.00;;
13799;SDS011;6971;50.028;9.258;2023-08-06T02:37:11;8.37;;;7.57;;
13799;SDS011;6971;50.028;9.258;2023-08-06T02:42:12;12.33;;;8.10;;
13799;SDS011;6971;50.028;9.258;2023-08-06T02:47:12;8.50;;;7.50;;
13799;SDS011;6971;50.028;9.258;2023-08-06T02:52:13;12.00;;;7.87;;
13799;SDS011;6971;50.028;9.258;2023-08-06T02:57:13;8.47;;;7.77;;
13799;SDS011;6971;50.028;9.258;2023-08-06T03:02:14;8.60;;;7.67;;
13799;SDS011;6971;50.028;9.258;2023-08-06T03:07:15;8.40;;;7.03;;
13799;SDS011;6971;50.028;9.258;2023-08-06T03:12:15;8.07;;;7.00;;
13799;SDS011;6971;50.028;9.258;2023-08-06T03:17:15;8.33;;;6.87;;
13799;SDS011;6971;50.028;9.258;2023-08-06T03:22:16;10.10;;;7.27;;
13799;SDS011;6971;50.028;9.258;2023-08-06T03:27:17;10.57;;;7.27;;
13799;SDS011;6971;50.028;9.258;2023-08-06T03:32:17;9.37;;;6.80;;
13799;SDS011;6971;50.028;9.258;2023-08-06T03:37:18;10.87;;;7.27;;
13799;SDS011;6971;50.028;9.258;2023-08-06T03:42:18;11.93;;;7.20;;
13799;SDS011;6971;50.028;9.258;2023-08-06T03:47:19;8.10;;;7.27;;
13799;SDS011;6971;50.028;9.258;2023-08-06T03:52:19;11.97;;;7.63;;
13799;SDS011;6971;50.028;9.258;2023-08-06T03:57:19;9.33;;;7.07;;
13799;SDS011;6971;50.028;9.258;2023-08-06T04:02:20;10.43;;;7.10;;
13799;SDS011;6971;50.028;9.258;2023-08-06T04:07:20;7.57;;;6.87;;
13799;SDS011;6971;50.028;9.258;2023-08-06T04:12:21;8.47;;;6.93;;
13799;SDS011;6971;50.028;9.258;2023-08-06T04:17:22;9.87;;;7.57;;
13799;SDS011;6971;50.028;9.258;2023-08-06T04:22:22;7.60;;;6.73;;
13799;SDS011;6971;50.028;9.258;2023-08-06T04:27:23;11.40;;;7.40;;
13799;SDS011;6971;50.028;9.258;2023-08-06T04:32:23;11.60;;;7.47;;
13799;SDS011;6971;50.028;9.258;2023-08-06T04:37:25;8.07;;;7.23;;
13799;SDS011;6971;50.028;9.258;2023-08-06T04:42:25;8.30;;;7.27;;
13799;SDS011;6971;50.028;9.258;2023-08-06T04:47:26;8.93;;;7.10;;
13799;SDS011;6971;50.028;9.258;2023-08-06T04:52:26;7.27;;;6.67;;
13799;SDS011;6971;50.028;9.258;2023-08-06T04:57:28;9.97;;;7.40;;
13799;SDS011;6971;50.028;9.258;2023-08-06T05:02:29;8.63;;;6.83;;
13799;SDS011;6971;50.028;9.258;2023-08-06T05:07:29;6.90;;;6.30;;
13799;SDS011;6971;50.028;9.258;2023-08-06T05:12:30;7.20;;;6.43;;
13799;SDS011;6971;50.028;9.258;2023-08-06T05:17:34;9.93;;;6.50;;
13799;SDS011;6971;50.028;9.258;2023-08-06T05:22:34;11.50;;;8.57;;
13799;SDS011;6971;50.028;9.258;2023-08-06T05:27:35;7.07;;;6.40;;
13799;SDS011;6971;50.028;9.258;2023-08-06T05:32:35;6.50;;;5.70;;
13799;SDS011;6971;50.028;9.258;2023-08-06T05:37:36;6.60;;;5.50;;
13799;SDS011;6971;50.028;9.258;2023-08-06T05:42:36;6.53;;;5.00;;
13799;SDS011;6971;50.028;9.258;2023-08-06T05:47:36;8.10;;;5.90;;
13799;SDS011;6971;50.028;9.258;2023-08-06T05:52:38;8.43;;;5.43;;
13799;SDS011;6971;50.028;9.258;2023-08-06T05:57:38;9.07;;;6.00;;
13799;SDS011;6971;50.028;9.258;2023-08-06T06:02:38;10.77;;;8.37;;
13799;SDS011;6971;50.028;9.258;2023-08-06T06:07:39;8.73;;;7.77;;
13799;SDS011;6971;50.028;9.258;2023-08-06T06:12:40;7.53;;;6.83;;
13799;SDS011;6971;50.028;9.258;2023-08-06T06:17:41;7.00;;;5.93;;
13799;SDS011;6971;50.028;9.258;2023-08-06T06:22:41;5.80;;;4.57;;
13799;SDS011;6971;50.028;9.258;2023-08-06T06:27:43;9.63;;;4.50;;
13799;SDS011;6971;50.028;9.258;2023-08-06T06:32:43;5.43;;;4.00;;
13799;SDS011;6971;50.028;9.258;2023-08-06T06:37:43;6.77;;;3.63;;
13799;SDS011;6971;50.028;9.258;2023-08-06T06:42:44;3.53;;;3.10;;
13799;SDS011;6971;50.028;9.258;2023-08-06T06:47:44;3.53;;;2.10;;
13799;SDS011;6971;50.028;9.258;2023-08-06T06:52:44;3.87;;;2.83;;
13799;SDS011;6971;50.028;9.258;2023-08-06T06:57:46;2.67;;;2.47;;
13799;SDS011;6971;50.028;9.258;2023-08-06T07:02:46;5.03;;;2.97;;
13799;SDS011;6971;50.028;9.258;2023-08-06T07:07:47;4.00;;;2.97;;
13799;SDS011;6971;50.028;9.258;2023-08-06T07:12:47;4.90;;;2.73;;
13799;SDS011;6971;50.028;9.258;2023-08-06T07:17:47;5.43;;;3.07;;
13799;SDS011;6971;50.028;9.258;2023-08-06T07:22:48;3.63;;;2.60;;
13799;SDS011;6971;50.028;9.258;2023-08-06T07:27:50;2.67;;;2.47;;
13799;SDS011;6971;50.028;9.258;2023-08-06T07:32:50;2.00;;;1.80;;
13799;SDS011;6971;50.028;9.258;2023-08-06T07:37:51;1.90;;;1.80;;
13799;SDS011;6971;50.028;9.258;2023-08-06T07:42:53;2.10;;;1.87;;
13799;SDS011;6971;50.028;9.258;2023-08-06T07:47:54;5.33;;;1.50;;
13799;SDS011;6971;50.028;9.258;2023-08-06T07:52:54;1.47;;;1.37;;
13799;SDS011;6971;50.028;9.258;2023-08-06T07:57:55;2.93;;;1.40;;
13799;SDS011;6971;50.028;9.258;2023-08-06T08:02:56;1.20;;;1.10;;
13799;SDS011;6971;50.028;9.258;2023-08-06T08:07:56;1.60;;;1.50;;
13799;SDS011;6971;50.028;9.258;2023-08-06T08:12:57;1.43;;;1.20;;
13799;SDS011;6971;50.028;9.258;2023-08-06T08:17:57;1.40;;;1.30;;
13799;SDS011;6971;50.028;9.258;2023-08-06T08:22:59;1.30;;;1.20;;
13799;SDS011;6971;50.028;9.258;2023-08-06T08:28:00;2.00;;;1.37;;
13799;SDS011;6971;50.028;9.258;2023-08-06T08:33:00;3.77;;;1.60;;
13799;SDS011;6971;50.028;9.258;2023-08-06T08:38:01;1.80;;;1.33;;
13799;SDS011;6971;50.028;9.258;2023-08-06T08:43:01;1.97;;;1.30;;
13799;SDS011;6971;50.028;9.258;2023-08-06T08:48:02;4.97;;;1.80;;
13799;SDS011;6971;50.028;9.258;2023-08-06T08:53:03;1.70;;;1.47;;
13799;SDS011;6971;50.028;9.258;2023-08-06T08:58:05;1.90;;;1.50;;
13799;SDS011;6971;50.028;9.258;2023-08-06T09:03:06;1.63;;;1.53;;
13799;SDS011;6971;50.028;9.258;2023-08-06T09:08:06;3.40;;;1.40;;
13799;SDS011;6971;50.028;9.258;2023-08-06T09:13:11;1.63;;;1.50;;
13799;SDS011;6971;50.028;9.258;2023-08-06T09:18:12;3.57;;;1.43;;
13799;SDS011;6971;50.028;9.258;2023-08-06T09:23:13;1.53;;;1.20;;
13799;SDS011;6971;50.028;9.258;2023-08-06T09:28:13;2.63;;;1.40;;
13799;SDS011;6971;50.028;9.258;2023-08-06T09:33:17;1.53;;;0.93;;
13799;SDS011;6971;50.028;9.258;2023-08-06T09:38:18;2.33;;;1.30;;
13799;SDS011;6971;50.028;9.258;2023-08-06T09:43:19;1.40;;;1.20;;
13799;SDS011;6971;50.028;9.258;2023-08-06T09:48:19;1.20;;;1.10;;
13799;SDS011;6971;50.028;9.258;2023-08-06T09:53:24;1.37;;;1.27;;
13799;SDS011;6971;50.028;9.258;2023-08-06T09:58:26;1.20;;;1.10;;
13799;SDS011;6971;50.028;9.258;2023-08-06T10:03:27;3.70;;;1.43;;
13799;SDS011;6971;50.028;9.258;2023-08-06T10:08:29;0.90;;;0.80;;
13799;SDS011;6971;50.028;9.258;2023-08-06T10:13:32;1.20;;;1.10;;
13799;SDS011;6971;50.028;9.258;2023-08-06T10:18:35;1.97;;;1.30;;
13799;SDS011;6971;50.028;9.258;2023-08-06T10:23:39;2.37;;;1.13;;
13799;SDS011;6971;50.028;9.258;2023-08-06T10:28:41;1.37;;;0.83;;
13799;SDS011;6971;50.028;9.258;2023-08-06T10:33:42;1.13;;;1.00;;
13799;SDS011;6971;50.028;9.258;2023-08-06T10:38:47;0.70;;;0.70;;
13799;SDS011;6971;50.028;9.258;2023-08-06T10:43:48;1.37;;;0.90;;
13799;SDS011;6971;50.028;9.258;2023-08-06T10:48:49;1.30;;;1.10;;
13799;SDS011;6971;50.028;9.258;2023-08-06T10:53:50;1.43;;;1.00;;
13799;SDS011;6971;50.028;9.258;2023-08-06T10:58:54;0.83;;;0.83;;
13799;SDS011;6971;50.028;9.258;2023-08-06T11:04:01;0.93;;;0.70;;
13799;SDS011;6971;50.028;9.258;2023-08-06T11:09:04;1.83;;;0.77;;
13799;SDS011;6971;50.028;9.258;2023-08-06T11:14:04;1.00;;;0.90;;
13799;SDS011;6971;50.028;9.258;2023-08-06T11:19:07;0.63;;;0.63;;
13799;SDS011;6971;50.028;9.258;2023-08-06T11:24:08;0.70;;;0.70;;
13799;SDS011;6971;50.028;9.258;2023-08-06T11:29:10;0.80;;;0.80;;
13799;SDS011;6971;50.028;9.258;2023-08-06T11:34:11;0.80;;;0.80;;
13799;SDS011;6971;50.028;9.258;2023-08-06T11:39:12;1.10;;;1.00;;
13799;SDS011;6971;50.028;9.258;2023-08-06T11:44:12;2.33;;;1.10;;
13799;SDS011;6971;50.028;9.258;2023-08-06T11:49:14;1.07;;;0.97;;
13799;SDS011;6971;50.028;9.258;2023-08-06T11:54:14;1.10;;;1.00;;
13799;SDS011;6971;50.028;9.258;2023-08-06T11:59:15;1.20;;;1.10;;
13799;SDS011;6971;50.028;9.258;2023-08-06T12:04:16;1.30;;;1.20;;
13799;SDS011;6971;50.028;9.258;2023-08-06T12:09:17;2.70;;;1.00;;
13799;SDS011;6971;50.028;9.258;2023-08-06T12:14:17;1.47;;;0.80;;
13799;SDS011;6971;50.028;9.258;2023-08-06T12:19:17;1.87;;;1.67;;
13799;SDS011;6971;50.028;9.258;2023-08-06T12:24:18;1.50;;;0.90;;
13799;SDS011;6971;50.028;9.258;2023-08-06T12:29:19;1.80;;;0.80;;
13799;SDS011;6971;50.028;9.258;2023-08-06T12:34:19;1.60;;;1.00;;
13799;SDS011;6971;50.028;9.258;2023-08-06T12:39:19;3.77;;;0.80;;
13799;SDS011;6971;50.028;9.258;2023-08-06T12:44:20;1.17;;;0.70;;
13799;SDS011;6971;50.028;9.258;2023-08-06T12:49:21;0.67;;;0.67;;
13799;SDS011;6971;50.028;9.258;2023-08-06T12:54:22;0.73;;;0.73;;
13799;SDS011;6971;50.028;9.258;2023-08-06T12:59:23;0.70;;;0.60;;
13799;SDS011;6971;50.028;9.258;2023-08-06T13:04:24;3.77;;;0.60;;
13799;SDS011;6971;50.028;9.258;2023-08-06T13:09:25;0.70;;;0.70;;
13799;SDS011;6971;50.028;9.258;2023-08-06T13:14:27;0.70;;;0.70;;
13799;SDS011;6971;50.028;9.258;2023-08-06T13:19:28;1.77;;;0.80;;
13799;SDS011;6971;50.028;9.258;2023-08-06T13:24:29;1.37;;;0.80;;
13799;SDS011;6971;50.028;9.258;2023-08-06T13:29:30;0.87;;;0.70;;
13799;SDS011;6971;50.028;9.258;2023-08-06T13:34:31;0.80;;;0.80;;
13799;SDS011;6971;50.028;9.258;2023-08-06T13:39:31;1.73;;;1.30;;
13799;SDS011;6971;50.028;9.258;2023-08-06T13:44:31;1.13;;;0.93;;
13799;SDS011;6971;50.028;9.258;2023-08-06T13:49:35;2.30;;;1.40;;
13799;SDS011;6971;50.028;9.258;2023-08-06T13:54:36;2.60;;;1.33;;
13799;SDS011;6971;50.028;9.258;2023-08-06T13:59:37;2.00;;;1.37;;
13799;SDS011;6971;50.028;9.258;2023-08-06T14:04:38;1.20;;;1.10;;
13799;SDS011;6971;50.028;9.258;2023-08-06T14:09:40;1.63;;;1.10;;
13799;SDS011;6971;50.028;9.258;2023-08-06T14:14:42;4.83;;;1.30;;
13799;SDS011;6971;50.028;9.258;2023-08-06T14:19:43;4.70;;;1.30;;
13799;SDS011;6971;50.028;9.258;2023-08-06T14:24:43;2.73;;;1.30;;
13799;SDS011;6971;50.028;9.258;2023-08-06T14:29:44;1.70;;;1.30;;
13799;SDS011;6971;50.028;9.258;2023-08-06T14:34:45;2.80;;;1.37;;
13799;SDS011;6971;50.028;9.258;2023-08-06T14:39:46;5.40;;;1.90;;
13799;SDS011;6971;50.028;9.258;2023-08-06T14:44:47;2.10;;;1.90;;
13799;SDS011;6971;50.028;9.258;2023-08-06T14:49:47;1.33;;;1.17;;
13799;SDS011;6971;50.028;9.258;2023-08-06T14:54:49;2.57;;;1.90;;
13799;SDS011;6971;50.028;9.258;2023-08-06T14:59:52;2.00;;;1.27;;
13799;SDS011;6971;50.028;9.258;2023-08-06T15:04:52;1.77;;;1.50;;
13799;SDS011;6971;50.028;9.258;2023-08-06T15:09:53;2.00;;;1.70;;
13799;SDS011;6971;50.028;9.258;2023-08-06T15:14:54;1.73;;;1.57;;
13799;SDS011;6971;50.028;9.258;2023-08-06T15:19:57;3.17;;;2.87;;
13799;SDS011;6971;50.028;9.258;2023-08-06T15:25:02;3.10;;;2.40;;
13799;SDS011;6971;50.028;9.258;2023-08-06T15:30:04;3.43;;;3.00;;
13799;SDS011;6971;50.028;9.258;2023-08-06T15:35:05;4.00;;;1.57;;
13799;SDS011;6971;50.028;9.258;2023-08-06T15:40:08;3.60;;;2.03;;
13799;SDS011;6971;50.028;9.258;2023-08-06T15:45:09;1.93;;;1.20;;
13799;SDS011;6971;50.028;9.258;2023-08-06T15:50:10;2.23;;;1.40;;
13799;SDS011;6971;50.028;9.258;2023-08-06T15:55:11;2.10;;;1.60;;
13799;SDS011;6971;50.028;9.258;2023-08-06T16:00:14;1.80;;;1.60;;
13799;SDS011;6971;50.028;9.258;2023-08-06T16:05:14;3.33;;;1.37;;
13799;SDS011;6971;50.028;9.258;2023-08-06T16:10:15;3.70;;;1.57;;
13799;SDS011;6971;50.028;9.258;2023-08-06T16:15:16;1.87;;;1.50;;
13799;SDS011;6971;50.028;9.258;2023-08-06T16:20:19;1.87;;;1.20;;
13799;SDS011;6971;50.028;9.258;2023-08-06T16:25:19;1.83;;;1.30;;
13799;SDS011;6971;50.028;9.258;2023-08-06T16:30:20;1.67;;;1.37;;
13799;SDS011;6971;50.028;9.258;2023-08-06T16:35:21;3.53;;;1.23;;
13799;SDS011;6971;50.028;9.258;2023-08-06T16:40:22;1.53;;;1.30;;
13799;SDS011;6971;50.028;9.258;2023-08-06T16:45:22;2.80;;;1.57;;
13799;SDS011;6971;50.028;9.258;2023-08-06T16:50:23;1.80;;;1.30;;
13799;SDS011;6971;50.028;9.258;2023-08-06T16:55:23;1.43;;;1.23;;
13799;SDS011;6971;50.028;9.258;2023-08-06T17:00:25;1.93;;;1.07;;
13799;SDS011;6971;50.028;9.258;2023-08-06T17:05:27;1.93;;;1.13;;
13799;SDS011;6971;50.028;9.258;2023-08-06T17:10:32;2.03;;;1.40;;
13799;SDS011;6971;50.028;9.258;2023-08-06T17:15:33;2.00;;;1.60;;
13799;SDS011;6971;50.028;9.258;2023-08-06T17:20:34;3.80;;;1.37;;
13799;SDS011;6971;50.028;9.258;2023-08-06T17:25:35;3.67;;;2.73;;
13799;SDS011;6971;50.028;9.258;2023-08-06T17:30:35;3.00;;;2.80;;
13799;SDS011;6971;50.028;9.258;2023-08-06T17:35:42;3.10;;;1.27;;
13799;SDS011;6971;50.028;9.258;2023-08-06T17:40:43;2.13;;;0.90;;
13799;SDS011;6971;50.028;9.258;2023-08-06T17:45:45;2.80;;;1.20;;
13799;SDS011;6971;50.028;9.258;2023-08-06T17:50:46;2.70;;;1.17;;
13799;SDS011;6971;50.028;9.258;2023-08-06T17:55:47;1.20;;;1.10;;
13799;SDS011;6971;50.028;9.258;2023-08-06T18:00:48;1.17;;;1.07;;
13799;SDS011;6971;50.028;9.258;2023-08-06T18:05:53;1.23;;;0.80;;
13799;SDS011;6971;50.028;9.258;2023-08-06T18:10:58;2.93;;;1.50;;
13799;SDS011;6971;50.028;9.258;2023-08-06T18:15:58;1.53;;;1.43;;
13799;SDS011;6971;50.028;9.258;2023-08-06T18:20:58;2.17;;;1.97;;
13799;SDS011;6971;50.028;9.258;2023-08-06T18:26:00;3.03;;;1.90;;
13799;SDS011;6971;50.028;9.258;2023-08-06T18:31:00;1.60;;;1.50;;
13799;SDS011;6971;50.028;9.258;2023-08-06T18:36:01;1.80;;;1.20;;
13799;SDS011;6971;50.028;9.258;2023-08-06T18:41:01;2.53;;;1.30;;
13799;SDS011;6971;50.028;9.258;2023-08-06T18:46:02;3.00;;;1.70;;
13799;SDS011;6971;50.028;9.258;2023-08-06T18:51:04;2.03;;;1.07;;
13799;SDS011;6971;50.028;9.258;2023-08-06T18:56:04;1.27;;;1.10;;
13799;SDS011;6971;50.028;9.258;2023-08-06T19:01:05;3.37;;;1.43;;
13799;SDS011;6971;50.028;9.258;2023-08-06T19:06:06;2.67;;;1.17;;
13799;SDS011;6971;50.028;9.258;2023-08-06T19:11:07;4.13;;;1.33;;
13799;SDS011;6971;50.028;9.258;2023-08-06T19:16:07;2.03;;;1.60;;
13799;SDS011;6971;50.028;9.258;2023-08-06T19:21:08;5.10;;;2.43;;
13799;SDS011;6971;50.028;9.258;2023-08-06T19:26:09;1.83;;;1.30;;
13799;SDS011;6971;50.028;9.258;2023-08-06T19:31:10;1.53;;;1.43;;
13799;SDS011;6971;50.028;9.258;2023-08-06T19:36:11;3.23;;;1.57;;
13799;SDS011;6971;50.028;9.258;2023-08-06T19:41:13;2.77;;;1.30;;
13799;SDS011;6971;50.028;9.258;2023-08-06T19:46:15;4.30;;;1.20;;
13799;SDS011;6971;50.028;9.258;2023-08-06T19:51:15;1.20;;;1.10;;
13799;SDS011;6971;50.028;9.258;2023-08-06T19:56:17;2.00;;;1.27;;
13799;SDS011;6971;50.028;9.258;2023-08-06T20:01:18;2.70;;;1.20;;
13799;SDS011;6971;50.028;9.258;2023-08-06T20:06:21;2.13;;;1.30;;
13799;SDS011;6971;50.028;9.258;2023-08-06T20:11:29;4.07;;;1.53;;
13799;SDS011;6971;50.028;9.258;2023-08-06T20:16:30;1.80;;;1.50;;
13799;SDS011;6971;50.028;9.258;2023-08-06T20:27:28;2.43;;;1.23;;
13799;SDS011;6971;50.028;9.258;2023-08-06T20:32:29;0.93;;;0.93;;
13799;SDS011;6971;50.028;9.258;2023-08-06T20:37:35;1.30;;;0.90;;
13799;SDS011;6971;50.028;9.258;2023-08-06T20:42:36;1.50;;;1.40;;
13799;SDS011;6971;50.028;9.258;2023-08-06T20:47:37;1.40;;;1.30;;
13799;SDS011;6971;50.028;9.258;2023-08-06T20:52:38;1.13;;;1.03;;
13799;SDS011;6971;50.028;9.258;2023-08-06T20:57:39;1.10;;;1.00;;
13799;SDS011;6971;50.028;9.258;2023-08-06T21:02:40;1.93;;;1.30;;
13799;SDS011;6971;50.028;9.258;2023-08-06T21:07:41;1.57;;;1.00;;
13799;SDS011;6971;50.028;9.258;2023-08-06T21:12:42;2.77;;;1.20;;
13799;SDS011;6971;50.028;9.258;2023-08-06T21:17:43;1.47;;;1.37;;
13799;SDS011;6971;50.028;9.258;2023-08-06T21:22:44;1.83;;;1.33;;
13799;SDS011;6971;50.028;9.258;2023-08-06T21:27:44;2.23;;;1.50;;
13799;SDS011;6971;50.028;9.258;2023-08-06T21:32:48;2.27;;;1.10;;
13799;SDS011;6971;50.028;9.258;2023-08-06T21:37:49;2.30;;;1.10;;
13799;SDS011;6971;50.028;9.258;2023-08-06T21:42:49;2.57;;;1.23;;
13799;SDS011;6971;50.028;9.258;2023-08-06T21:47:50;2.10;;;1.27;;
13799;SDS011;6971;50.028;9.258;2023-08-06T21:52:51;1.13;;;1.03;;
13799;SDS011;6971;50.028;9.258;2023-08-06T21:57:52;1.10;;;1.00;;
13799;SDS011;6971;50.028;9.258;2023-08-06T22:02:52;1.10;;;1.00;;
13799;SDS011;6971;50.028;9.258;2023-08-06T22:07:53;1.40;;;0.90;;
13799;SDS011;6971;50.028;9.258;2023-08-06T22:12:55;4.20;;;0.93;;
13799;SDS011;6971;50.028;9.258;2023-08-06T22:17:56;0.97;;;0.97;;
13799;SDS011;6971;50.028;9.258;2023-08-06T22:22:57;1.33;;;1.23;;
13799;SDS011;6971;50.028;9.258;2023-08-06T22:27:57;1.30;;;1.20;;
13799;SDS011;6971;50.028;9.258;2023-08-06T22:32:59;2.40;;;1.30;;
13799;SDS011;6971;50.028;9.258;2023-08-06T22:38:00;1.23;;;1.13;;
13799;SDS011;6971;50.028;9.258;2023-08-06T22:43:01;2.17;;;1.40;;
13799;SDS011;6971;50.028;9.258;2023-08-06T22:48:02;2.00;;;1.70;;
13799;SDS011;6971;50.028;9.258;2023-08-06T22:53:03;1.60;;;1.50;;
13799;SDS011;6971;50.028;9.258;2023-08-06T22:58:04;1.50;;;1.40;;
13799;SDS011;6971;50.028;9.258;2023-08-06T23:03:04;3.00;;;1.70;;
13799;SDS011;6971;50.028;9.258;2023-08-06T23:08:05;1.43;;;1.33;;
13799;SDS011;6971;50.028;9.258;2023-08-06T23:13:06;2.80;;;1.83;;
13799;SDS011;6971;50.028;9.258;2023-08-06T23:18:07;4.23;;;2.07;;
13799;SDS011;6971;50.028;9.258;2023-08-06T23:23:08;1.93;;;1.80;;
13799;SDS011;6971;50.028;9.258;2023-08-06T23:28:09;2.53;;;1.90;;
13799;SDS011;6971;50.028;9.258;2023-08-06T23:33:09;4.13;;;1.80;;
13799;SDS011;6971;50.028;9.258;2023-08-06T23:38:10;4.70;;;2.00;;
13799;SDS011;6971;50.028;9.258;2023-08-06T23:43:11;3.27;;;1.90;;
13799;SDS011;6971;50.028;9.258;2023-08-06T23:48:12;3.80;;;2.10;;
13799;SDS011;6971;50.028;9.258;2023-08-06T23:53:13;3.80;;;2.00;;
13799;SDS011;6971;50.028;9.258;2023-08-06T23:58:13;5.33;;;2.20;;
